Time;durP1;ratioP1;P1;durP2;ratioP2;P2;SDS_P1;SDS_P2;PMS_P1;PMS_P2;Temp;Humidity;BMP_temperature;BMP_pressure;BME280_temperature;BME280_humidity;BME280_pressure;Samples;Min_cycle;Max_cycle;Signal;HPM_P1;HPM_P2
2022/07/23 00:00:10;;;;;;;5.95;3.40;;;16.50;99.90;;;;;;4897381;29;20068;-72
2022/07/23 00:02:36;;;;;;;7.25;3.42;;;16.50;99.90;;;;;;4897518;29;20054;-75
2022/07/23 00:05:03;;;;;;;6.10;2.80;;;16.40;99.90;;;;;;4893563;29;20525;-74
2022/07/23 00:07:28;;;;;;;6.50;3.67;;;16.40;99.90;;;;;;4896054;29;20556;-73
2022/07/23 00:09:54;;;;;;;5.53;3.38;;;16.40;99.90;;;;;;4896314;29;20048;-75
2022/07/23 00:12:21;;;;;;;6.30;3.50;;;16.40;99.90;;;;;;4895347;29;20118;-74
2022/07/23 00:14:46;;;;;;;7.00;3.40;;;16.30;99.90;;;;;;4909809;29;20068;-74
2022/07/23 00:17:12;;;;;;;8.38;3.60;;;16.30;99.90;;;;;;4913227;29;20068;-73
2022/07/23 00:19:37;;;;;;;7.25;3.90;;;16.30;99.90;;;;;;4900551;29;20037;-74
2022/07/23 00:22:03;;;;;;;6.32;2.95;;;16.30;99.90;;;;;;4878913;29;20052;-74
2022/07/23 00:24:29;;;;;;;8.25;3.45;;;16.20;99.90;;;;;;4897557;29;20100;-73
2022/07/23 00:26:55;;;;;;;4.50;3.25;;;16.20;99.90;;;;;;4893250;29;20533;-74
2022/07/23 00:29:20;;;;;;;5.53;3.03;;;16.20;99.90;;;;;;4904671;29;20412;-74
2022/07/23 00:31:46;;;;;;;8.60;3.30;;;16.30;99.90;;;;;;4901078;29;20056;-74
2022/07/23 00:34:12;;;;;;;5.13;3.35;;;16.20;99.90;;;;;;4895299;29;20048;-74
2022/07/23 00:36:38;;;;;;;6.07;3.40;;;16.30;99.90;;;;;;4897132;29;20048;-73
2022/07/23 00:39:03;;;;;;;5.85;3.17;;;16.20;99.90;;;;;;4895187;29;20044;-74
2022/07/23 00:41:29;;;;;;;6.88;3.28;;;16.20;99.90;;;;;;4899488;29;20592;-74
2022/07/23 00:43:55;;;;;;;3.70;2.95;;;16.20;99.90;;;;;;4905249;29;20100;-73
2022/07/23 00:46:21;;;;;;;4.18;3.08;;;16.10;99.90;;;;;;4895592;29;20136;-74
2022/07/23 00:48:47;;;;;;;4.10;2.72;;;16.10;99.90;;;;;;4901763;29;20056;-73
2022/07/23 00:51:16;;;;;;;4.75;2.90;;;16.00;99.90;;;;;;4895503;29;20826;-74
2022/07/23 00:53:42;;;;;;;4.05;3.20;;;15.90;99.90;;;;;;4887533;29;20232;-74
2022/07/23 00:56:08;;;;;;;4.60;3.17;;;15.90;99.90;;;;;;4908419;29;20127;-74
2022/07/23 00:58:35;;;;;;;5.97;3.08;;;15.80;99.90;;;;;;4894494;29;20144;-74
2022/07/23 01:01:01;;;;;;;;;;;15.80;99.90;;;;;;4895733;29;20051;-72
2022/07/23 01:03:27;;;;;;;8.30;3.40;;;15.70;99.90;;;;;;4895239;29;19924;-73
2022/07/23 01:05:53;;;;;;;7.10;3.85;;;15.60;99.90;;;;;;4878313;29;20132;-74
2022/07/23 01:08:19;;;;;;;7.95;3.70;;;15.60;99.90;;;;;;4894244;29;20149;-73
2022/07/23 01:10:47;;;;;;;7.22;4.10;;;15.60;99.90;;;;;;4895582;29;20485;-74
2022/07/23 01:13:12;;;;;;;;;;;15.60;99.90;;;;;;4896458;29;20052;-73
2022/07/23 01:15:38;;;;;;;7.47;4.70;;;15.60;99.90;;;;;;4909806;29;19922;-73
2022/07/23 01:18:06;;;;;;;9.75;7.97;;;15.50;99.90;;;;;;4895697;29;20100;-74
2022/07/23 01:20:32;;;;;;;;;;;15.50;99.90;;;;;;4898457;29;20084;-73
2022/07/23 01:22:58;;;;;;;9.40;7.57;;;15.40;99.90;;;;;;4892428;29;20026;-74
2022/07/23 01:25:24;;;;;;;10.98;7.30;;;15.40;99.90;;;;;;4894152;29;20055;-75
2022/07/23 01:27:52;;;;;;;8.65;7.07;;;15.30;99.90;;;;;;4897506;29;20044;-74
2022/07/23 01:30:20;;;;;;;10.10;7.72;;;15.30;99.90;;;;;;4890533;29;20112;-74
2022/07/23 01:32:46;;;;;;;9.43;7.22;;;15.30;99.90;;;;;;4896988;29;20044;-74
2022/07/23 01:35:12;;;;;;;10.52;9.10;;;15.30;99.90;;;;;;4899056;29;20050;-74
2022/07/23 01:37:38;;;;;;;9.55;8.52;;;15.30;99.90;;;;;;4900927;29;20112;-73
2022/07/23 01:40:05;;;;;;;10.88;8.82;;;15.30;99.90;;;;;;4893410;29;20462;-74
2022/07/23 01:42:30;;;;;;;13.93;8.80;;;15.30;99.90;;;;;;4877375;29;20100;-73
2022/07/23 01:44:56;;;;;;;8.70;7.72;;;15.30;99.90;;;;;;4895982;29;20041;-74
2022/07/23 01:47:23;;;;;;;8.13;6.95;;;15.30;99.90;;;;;;4895046;29;20056;-74
2022/07/23 01:49:48;;;;;;;9.93;7.07;;;15.30;99.90;;;;;;4884136;29;20059;-73
2022/07/23 01:52:14;;;;;;;8.40;7.25;;;15.30;99.90;;;;;;4894683;29;20052;-74
2022/07/23 01:54:40;;;;;;;9.57;6.82;;;15.30;99.90;;;;;;4890386;29;20072;-74
2022/07/23 01:57:07;;;;;;;10.05;7.10;;;15.30;99.90;;;;;;4890079;29;20041;-74
2022/07/23 01:59:33;;;;;;;8.15;6.13;;;15.40;99.90;;;;;;4880242;29;20137;-74
2022/07/23 02:01:58;;;;;;;7.95;6.05;;;15.40;99.90;;;;;;4892721;29;20119;-74
2022/07/23 02:04:25;;;;;;;7.82;5.80;;;15.40;99.90;;;;;;4893888;29;20399;-73
2022/07/23 02:06:52;;;;;;;9.82;5.93;;;15.40;99.90;;;;;;4892867;29;20401;-74
2022/07/23 02:09:18;;;;;;;7.15;5.68;;;15.50;99.90;;;;;;4895596;29;20044;-73
2022/07/23 02:11:44;;;;;;;9.25;5.70;;;15.50;99.90;;;;;;4903572;29;20055;-74
2022/07/23 02:14:10;;;;;;;10.07;6.35;;;15.50;99.90;;;;;;4903791;29;20405;-73
2022/07/23 02:16:35;;;;;;;8.00;6.30;;;15.50;99.90;;;;;;4893552;29;20037;-73
2022/07/23 02:19:02;;;;;;;7.00;6.30;;;15.50;99.90;;;;;;4894976;29;20049;-74
2022/07/23 02:21:28;;;;;;;7.23;6.43;;;15.50;99.90;;;;;;4892783;29;20040;-73
2022/07/23 02:23:54;;;;;;;17.08;15.55;;;15.50;99.90;;;;;;4890729;29;20367;-73
2022/07/23 02:26:19;;;;;;;19.58;17.98;;;15.50;99.90;;;;;;4895099;29;20384;-74
2022/07/23 02:28:45;;;;;;;21.35;19.50;;;15.50;99.90;;;;;;4893331;29;20049;-73
2022/07/23 02:31:10;;;;;;;26.95;24.67;;;15.50;99.90;;;;;;4898482;29;20040;-73
2022/07/23 02:33:36;;;;;;;30.52;27.98;;;15.50;99.90;;;;;;4892873;29;20045;-75
2022/07/23 02:36:02;;;;;;;27.35;25.15;;;15.50;99.90;;;;;;4894032;29;20412;-74
2022/07/23 02:38:28;;;;;;;23.40;21.40;;;15.50;99.90;;;;;;4892117;29;20402;-73
2022/07/23 02:40:53;;;;;;;22.98;20.88;;;15.50;99.90;;;;;;4894061;29;20048;-72
2022/07/23 02:43:19;;;;;;;26.60;24.35;;;15.50;99.90;;;;;;4894598;29;20037;-74
2022/07/23 02:45:45;;;;;;;24.30;22.08;;;15.50;99.90;;;;;;4893169;29;20053;-73
2022/07/23 02:48:12;;;;;;;22.25;20.45;;;15.50;99.90;;;;;;4910451;29;20112;-74
2022/07/23 02:50:38;;;;;;;;;;;15.50;99.90;;;;;;4901984;29;20175;-74
2022/07/23 02:53:03;;;;;;;22.95;20.83;;;15.50;99.90;;;;;;4890278;29;19947;-74
2022/07/23 02:55:29;;;;;;;23.48;21.42;;;15.40;99.90;;;;;;4895361;29;20488;-75
2022/07/23 02:57:55;;;;;;;22.42;20.48;;;15.40;99.90;;;;;;4876588;29;20051;-74
2022/07/23 03:00:21;;;;;;;21.02;18.95;;;15.30;99.90;;;;;;4893836;29;20041;-74
2022/07/23 03:02:46;;;;;;;18.90;17.27;;;15.40;99.90;;;;;;4894253;29;20087;-72
2022/07/23 03:05:12;;;;;;;15.52;11.45;;;15.30;99.90;;;;;;4895891;29;20075;-75
2022/07/23 03:07:38;;;;;;;10.07;8.70;;;15.30;99.90;;;;;;4894500;29;20117;-73
2022/07/23 03:10:04;;;;;;;9.23;7.20;;;15.30;99.90;;;;;;4895398;29;20048;-73
2022/07/23 03:12:29;;;;;;;9.40;8.30;;;15.30;99.90;;;;;;4897379;29;20361;-73
2022/07/23 03:14:55;;;;;;;8.88;6.88;;;15.20;99.90;;;;;;4900535;29;20059;-75
2022/07/23 03:17:21;;;;;;;7.30;5.68;;;15.10;99.90;;;;;;4898878;29;20040;-74
2022/07/23 03:19:46;;;;;;;6.72;5.47;;;15.10;99.90;;;;;;4904367;29;20097;-73
2022/07/23 03:22:12;;;;;;;8.85;5.70;;;15.00;99.90;;;;;;4908117;29;20155;-73
2022/07/23 03:24:53;;;;;;;8.13;5.50;;;15.00;99.90;;;;;;4912313;29;20122;-75
2022/07/23 03:27:19;;;;;;;10.43;5.60;;;15.00;99.90;;;;;;4887994;29;20613;-74
2022/07/23 03:29:45;;;;;;;8.52;5.18;;;15.00;99.90;;;;;;4888710;29;20048;-73
2022/07/23 03:32:11;;;;;;;7.22;4.80;;;15.00;99.90;;;;;;4897423;29;20404;-74
2022/07/23 03:34:37;;;;;;;5.68;4.88;;;15.00;99.90;;;;;;4896916;29;20538;-73
2022/07/23 03:37:03;;;;;;;7.35;5.00;;;14.90;99.90;;;;;;4895956;29;20132;-76
2022/07/23 03:39:29;;;;;;;7.78;5.03;;;14.90;99.90;;;;;;4896789;29;20434;-73
2022/07/23 03:41:54;;;;;;;8.70;5.60;;;14.90;99.90;;;;;;4911064;29;20052;-73
2022/07/23 03:44:20;;;;;;;6.10;5.13;;;14.90;99.90;;;;;;4889510;29;20375;-74
2022/07/23 03:46:46;;;;;;;6.55;5.55;;;14.80;99.90;;;;;;4881208;29;20049;-75
2022/07/23 03:49:11;;;;;;;9.25;5.82;;;14.80;99.90;;;;;;4896026;29;20049;-74
2022/07/23 03:51:37;;;;;;;9.77;5.10;;;14.80;99.90;;;;;;4877295;29;20047;-74
2022/07/23 03:54:03;;;;;;;7.28;5.30;;;14.80;99.90;;;;;;4896368;29;20453;-74
2022/07/23 03:56:29;;;;;;;7.55;5.00;;;14.80;99.90;;;;;;4898544;29;20117;-74
2022/07/23 03:58:54;;;;;;;14.95;5.75;;;14.80;99.90;;;;;;4899087;29;20667;-73
2022/07/23 04:01:20;;;;;;;7.80;5.13;;;14.80;99.90;;;;;;4897839;29;20053;-73
2022/07/23 04:03:46;;;;;;;7.55;5.53;;;14.70;99.90;;;;;;4902802;29;20049;-73
2022/07/23 04:06:12;;;;;;;6.78;5.40;;;14.70;99.90;;;;;;4886762;29;20045;-75
2022/07/23 04:08:37;;;;;;;7.43;5.22;;;14.70;99.90;;;;;;4896399;29;20052;-73
2022/07/23 04:11:03;;;;;;;8.18;5.65;;;14.70;99.90;;;;;;4896351;29;20040;-75
2022/07/23 04:13:29;;;;;;;5.97;5.35;;;14.70;99.90;;;;;;4899860;29;20036;-74
2022/07/23 04:15:55;;;;;;;8.48;5.60;;;14.70;99.90;;;;;;4898592;29;20123;-74
2022/07/23 04:18:23;;;;;;;6.03;4.93;;;14.70;99.90;;;;;;4893735;29;20041;-73
2022/07/23 04:20:50;;;;;;;9.05;5.45;;;14.60;99.90;;;;;;4894380;29;20048;-75
2022/07/23 04:23:16;;;;;;;6.47;5.03;;;14.70;99.90;;;;;;4895703;29;20051;-73
2022/07/23 04:25:43;;;;;;;7.22;5.43;;;14.70;99.90;;;;;;4895785;29;20139;-73
2022/07/23 04:28:09;;;;;;;6.70;5.15;;;14.70;99.90;;;;;;4902406;29;20048;-74
2022/07/23 04:30:34;;;;;;;7.00;5.65;;;14.80;99.90;;;;;;4904023;29;20107;-74
2022/07/23 04:33:00;;;;;;;8.73;5.43;;;14.70;99.90;;;;;;4896573;29;20547;-73
2022/07/23 04:35:26;;;;;;;10.32;6.18;;;14.70;99.90;;;;;;4896580;29;20408;-74
2022/07/23 04:37:52;;;;;;;11.45;6.43;;;14.70;99.90;;;;;;4877732;29;20048;-74
2022/07/23 04:40:18;;;;;;;11.00;6.47;;;14.80;99.90;;;;;;4895539;29;20420;-74
2022/07/23 04:42:43;;;;;;;7.93;6.40;;;14.80;99.90;;;;;;4896914;29;20041;-74
2022/07/23 04:45:09;;;;;;;8.27;6.97;;;14.90;99.90;;;;;;4896917;29;20044;-72
2022/07/23 04:47:35;;;;;;;9.20;6.70;;;14.90;99.90;;;;;;4892305;29;20044;-72
2022/07/23 04:50:00;;;;;;;8.30;6.68;;;14.90;99.90;;;;;;4895095;29;20511;-72
2022/07/23 04:52:26;;;;;;;10.00;6.80;;;15.00;99.90;;;;;;4897100;29;20473;-73
2022/07/23 04:54:52;;;;;;;7.78;5.90;;;15.00;99.90;;;;;;4879569;29;20507;-73
2022/07/23 04:57:17;;;;;;;8.15;6.30;;;15.00;99.90;;;;;;4892724;29;20040;-73
2022/07/23 04:59:43;;;;;;;7.50;6.32;;;15.10;99.90;;;;;;4899659;29;20131;-73
2022/07/23 05:02:09;;;;;;;10.45;5.90;;;15.10;99.90;;;;;;4894826;29;20047;-73
2022/07/23 05:04:34;;;;;;;8.95;6.40;;;15.10;99.90;;;;;;4879148;29;20153;-75
2022/07/23 05:07:00;;;;;;;8.20;5.93;;;15.10;99.90;;;;;;4894276;29;20040;-74
2022/07/23 05:09:26;;;;;;;9.23;6.43;;;15.10;99.90;;;;;;4896635;29;20059;-74
2022/07/23 05:11:52;;;;;;;8.35;6.50;;;15.20;99.90;;;;;;4893708;29;20052;-74
2022/07/23 05:14:17;;;;;;;10.30;6.93;;;15.20;99.90;;;;;;4894771;29;20070;-74
2022/07/23 05:16:43;;;;;;;12.32;6.32;;;15.30;99.90;;;;;;4895339;29;20060;-73
2022/07/23 05:19:09;;;;;;;8.20;5.90;;;15.30;99.90;;;;;;4892031;29;20131;-73
2022/07/23 05:21:35;;;;;;;8.15;5.65;;;15.40;99.90;;;;;;4902098;29;20467;-74
2022/07/23 05:24:01;;;;;;;10.35;6.30;;;15.40;99.90;;;;;;4914293;29;20044;-75
2022/07/23 05:26:26;;;;;;;9.30;5.47;;;15.50;99.90;;;;;;4914106;29;20047;-75
2022/07/23 05:28:55;;;;;;;8.68;5.93;;;15.50;99.90;;;;;;4886675;29;20045;-73
2022/07/23 05:31:24;;;;;;;10.95;6.00;;;15.50;99.90;;;;;;4896063;29;20049;-73
2022/07/23 05:33:49;;;;;;;8.48;6.20;;;15.60;99.90;;;;;;4879215;29;20139;-73
2022/07/23 05:36:15;;;;;;;8.75;5.80;;;15.70;99.90;;;;;;4893851;29;20045;-75
2022/07/23 05:38:41;;;;;;;8.55;5.93;;;15.70;99.90;;;;;;4878397;29;20033;-74
2022/07/23 05:41:06;;;;;;;8.73;6.13;;;15.80;99.90;;;;;;4895075;29;20144;-73
2022/07/23 05:43:32;;;;;;;9.50;5.18;;;15.80;99.90;;;;;;4888617;29;20983;-75
2022/07/23 05:45:58;;;;;;;10.65;5.45;;;15.80;99.90;;;;;;4894839;29;20049;-74
2022/07/23 05:48:23;;;;;;;10.48;5.18;;;15.90;99.90;;;;;;4896233;29;20079;-74
2022/07/23 05:50:49;;;;;;;9.57;5.40;;;16.00;99.90;;;;;;4911471;29;20083;-74
2022/07/23 05:53:15;;;;;;;9.18;5.07;;;15.90;99.90;;;;;;4882345;29;20476;-75
2022/07/23 05:55:40;;;;;;;9.65;5.53;;;16.00;99.90;;;;;;4894966;29;20045;-75
2022/07/23 05:58:06;;;;;;;8.30;5.00;;;16.00;99.90;;;;;;4893282;29;20048;-75
2022/07/23 06:00:32;;;;;;;9.18;5.28;;;16.10;99.90;;;;;;4882737;29;20055;-75
2022/07/23 06:02:58;;;;;;;9.48;4.90;;;16.20;99.90;;;;;;4899492;29;20048;-74
2022/07/23 06:05:24;;;;;;;6.63;4.88;;;16.20;99.90;;;;;;4879018;29;20072;-74
2022/07/23 06:07:50;;;;;;;7.50;4.18;;;16.30;99.90;;;;;;4875893;29;20041;-74
2022/07/23 06:10:16;;;;;;;7.18;4.28;;;16.40;99.90;;;;;;4894012;29;20041;-74
2022/07/23 06:12:41;;;;;;;9.05;4.13;;;16.50;99.90;;;;;;4895106;29;20132;-76
2022/07/23 06:15:08;;;;;;;7.88;4.25;;;16.50;99.90;;;;;;4893347;29;20126;-74
2022/07/23 06:17:34;;;;;;;6.37;3.97;;;16.60;99.90;;;;;;4878320;29;20055;-74
2022/07/23 06:20:02;;;;;;;8.48;4.00;;;16.60;99.90;;;;;;4900383;29;20499;-73
2022/07/23 06:22:28;;;;;;;7.60;4.10;;;16.60;99.90;;;;;;4888781;29;20060;-72
2022/07/23 06:24:53;;;;;;;10.02;4.50;;;16.70;99.90;;;;;;4888000;29;20049;-76
2022/07/23 06:27:19;;;;;;;8.52;4.75;;;16.70;99.90;;;;;;4896549;29;20140;-74
2022/07/23 06:30:03;;;;;;;6.90;4.38;;;16.70;99.90;;;;;;4875979;29;20080;-74
2022/07/23 06:32:29;;;;;;;7.72;3.95;;;16.80;99.90;;;;;;4876900;29;20112;-75
2022/07/23 06:35:40;;;;;;;;;;;;;;;;;;;;;
2022/07/23 06:51:11;;;;;;;7.13;3.13;;;17.20;99.90;;;;;;4932930;23;20131;-77
2022/07/23 07:05:27;;;;;;;4.65;2.92;;;17.40;99.90;;;;;;4890488;23;20060;-78
2022/07/23 07:08:21;;;;;;;6.18;2.95;;;17.60;99.90;;;;;;4893448;29;20239;-77
2022/07/23 07:22:32;;;;;;;7.05;1.90;;;17.80;99.90;;;;;;5136756;23;20221;-82
2022/07/23 07:24:58;;;;;;;5.30;2.03;;;17.80;99.90;;;;;;4928019;29;20059;-82
2022/07/23 07:27:24;;;;;;;3.35;1.80;;;17.80;99.90;;;;;;4933906;29;20040;-83
2022/07/23 07:29:49;;;;;;;3.17;1.63;;;17.80;99.90;;;;;;4933954;29;20047;-77
2022/07/23 07:32:15;;;;;;;4.00;1.70;;;17.90;99.90;;;;;;4931764;29;20123;-77
2022/07/23 07:34:41;;;;;;;6.63;1.80;;;18.00;99.90;;;;;;4909208;29;20051;-75
2022/07/23 07:37:07;;;;;;;3.85;1.80;;;18.00;99.90;;;;;;4923136;29;20545;-77
2022/07/23 07:39:32;;;;;;;4.53;1.55;;;18.10;99.90;;;;;;4933997;29;20044;-75
2022/07/23 07:41:58;;;;;;;3.92;1.35;;;18.20;99.90;;;;;;4941495;29;20055;-76
2022/07/23 07:44:24;;;;;;;3.30;1.35;;;18.20;99.90;;;;;;4933276;29;20114;-77
2022/07/23 07:46:49;;;;;;;3.63;1.60;;;18.30;99.90;;;;;;4937683;29;20104;-77
2022/07/23 07:49:17;;;;;;;4.22;1.20;;;18.30;99.90;;;;;;4930959;29;20051;-76
2022/07/23 07:51:42;;;;;;;4.53;1.25;;;18.30;99.90;;;;;;4926503;29;20059;-77
2022/07/23 07:54:08;;;;;;;5.90;1.50;;;18.40;99.90;;;;;;4926592;29;20052;-78
2022/07/23 07:56:34;;;;;;;3.90;1.50;;;18.50;99.90;;;;;;4949570;29;20087;-75
2022/07/23 07:59:00;;;;;;;5.30;1.40;;;18.60;99.90;;;;;;4932013;29;20050;-76
2022/07/23 08:01:26;;;;;;;4.03;1.60;;;18.70;99.90;;;;;;4923291;29;20048;-76
2022/07/23 08:03:52;;;;;;;4.10;1.45;;;18.80;99.90;;;;;;4920286;29;20055;-76
2022/07/23 08:06:17;;;;;;;3.92;1.40;;;18.90;99.90;;;;;;4928117;29;20047;-76
2022/07/23 08:08:43;;;;;;;4.93;1.30;;;18.90;99.90;;;;;;4931327;29;20043;-76
2022/07/23 08:11:08;;;;;;;5.43;1.30;;;18.90;99.90;;;;;;4921571;29;20051;-75
2022/07/23 08:13:34;;;;;;;3.95;1.67;;;19.00;99.90;;;;;;4923116;29;20390;-76
2022/07/23 08:16:00;;;;;;;2.92;1.30;;;19.10;99.90;;;;;;4928326;29;20134;-76
2022/07/23 08:18:25;;;;;;;3.45;1.10;;;19.10;99.90;;;;;;4915889;29;20055;-76
2022/07/23 08:20:51;;;;;;;4.45;1.30;;;19.20;99.90;;;;;;4920053;29;20063;-78
2022/07/23 08:23:19;;;;;;;3.70;1.38;;;19.30;99.90;;;;;;4924290;29;20692;-78
2022/07/23 08:25:46;;;;;;;3.05;1.08;;;19.30;99.90;;;;;;4933990;29;20074;-77
2022/07/23 08:28:13;;;;;;;6.60;1.20;;;19.40;99.90;;;;;;4930366;29;20079;-79
2022/07/23 08:30:40;;;;;;;1.90;1.00;;;19.50;99.90;;;;;;4928132;29;20047;-79
2022/07/23 08:33:10;;;;;;;3.55;1.15;;;19.60;99.90;;;;;;4918359;29;20043;-80
2022/07/23 08:35:39;;;;;;;3.40;1.33;;;19.50;99.90;;;;;;4907577;29;20102;-79
2022/07/23 08:38:10;;;;;;;5.07;1.15;;;19.50;99.90;;;;;;4913597;29;20066;-80
2022/07/23 08:40:38;;;;;;;2.92;1.13;;;19.50;99.90;;;;;;4921151;29;20044;-80
2022/07/23 08:43:05;;;;;;;2.58;1.00;;;19.60;99.90;;;;;;4914897;29;20052;-79
2022/07/23 08:45:34;;;;;;;;;;;19.70;99.90;;;;;;4929633;29;20040;-80
2022/07/23 08:48:00;;;;;;;3.80;1.00;;;19.70;99.90;;;;;;4924282;29;19923;-83
2022/07/23 08:50:26;;;;;;;4.88;1.00;;;19.70;99.90;;;;;;4929732;29;20402;-84
2022/07/23 08:52:53;;;;;;;4.32;1.20;;;19.60;99.90;;;;;;4929528;29;20052;-82
2022/07/23 08:55:21;;;;;;;3.35;1.10;;;19.60;99.90;;;;;;4912830;29;20059;-82
2022/07/23 08:57:50;;;;;;;;;;;19.60;99.90;;;;;;4913555;29;20134;-83
2022/07/23 09:00:16;;;;;;;1.45;0.90;;;19.60;99.90;;;;;;4896029;29;19930;-82
2022/07/23 09:02:44;;;;;;;2.58;0.90;;;19.70;99.90;;;;;;4912575;29;20054;-81
2022/07/23 09:05:11;;;;;;;2.63;1.20;;;19.70;99.90;;;;;;4907457;29;20060;-78
2022/07/23 09:07:37;;;;;;;;;;;19.80;99.90;;;;;;4928871;29;20503;-80
2022/07/23 09:10:10;;;;;;;3.95;0.88;;;19.90;99.90;;;;;;4915141;29;19930;-80
2022/07/23 09:12:37;;;;;;;2.75;1.00;;;20.00;99.90;;;;;;4923961;29;20151;-82
2022/07/23 09:15:09;;;;;;;5.10;1.10;;;20.10;99.90;;;;;;4915434;29;20044;-82
2022/07/23 09:17:41;;;;;;;1.10;0.93;;;20.30;99.90;;;;;;4932468;29;20047;-82
2022/07/23 09:20:15;;;;;;;4.82;1.10;;;20.40;99.90;;;;;;4908908;29;20067;-81
2022/07/23 09:22:46;;;;;;;2.75;1.08;;;20.50;99.90;;;;;;4924271;29;20052;-83
2022/07/23 09:25:17;;;;;;;2.08;0.90;;;20.50;99.90;;;;;;4896939;29;20052;-82
2022/07/23 09:27:45;;;;;;;1.85;1.08;;;20.40;99.90;;;;;;4913718;29;20056;-82
2022/07/23 09:30:12;;;;;;;2.78;0.82;;;20.50;99.90;;;;;;4913092;29;20387;-82
2022/07/23 09:32:39;;;;;;;4.20;1.00;;;20.60;99.90;;;;;;4916072;29;20040;-81
2022/07/23 09:35:05;;;;;;;1.52;0.90;;;20.60;99.90;;;;;;4914737;29;20103;-81
2022/07/23 09:37:31;;;;;;;3.60;1.08;;;20.70;99.90;;;;;;4915534;29;20055;-81
2022/07/23 09:40:16;;;;;;;1.75;0.80;;;20.70;99.90;;;;;;4887020;29;20388;-85
2022/07/23 09:42:54;;;;;;;2.53;1.05;;;20.60;99.90;;;;;;4895171;29;20052;-84
2022/07/23 09:45:20;;;;;;;2.42;0.88;;;20.60;99.90;;;;;;4919547;29;20060;-78
2022/07/23 09:47:46;;;;;;;3.20;1.00;;;20.60;99.90;;;;;;4908672;29;20119;-78
2022/07/23 09:50:13;;;;;;;1.47;0.80;;;20.60;99.90;;;;;;4900034;29;20055;-78
2022/07/23 09:52:43;;;;;;;0.70;0.70;;;20.60;99.90;;;;;;4904176;29;20120;-82
2022/07/23 09:55:09;;;;;;;5.15;0.90;;;20.60;99.90;;;;;;4894669;29;20059;-78
2022/07/23 09:57:39;;;;;;;3.47;1.00;;;20.70;99.90;;;;;;4912337;29;20037;-82
2022/07/23 10:00:08;;;;;;;3.35;1.10;;;20.70;99.90;;;;;;4908687;29;20059;-79
2022/07/23 10:02:34;;;;;;;2.30;0.80;;;20.70;99.90;;;;;;4895532;29;20052;-79
2022/07/23 10:05:02;;;;;;;2.58;0.90;;;20.60;99.90;;;;;;4865148;29;20051;-80
2022/07/23 10:07:31;;;;;;;1.52;0.90;;;20.60;99.90;;;;;;4913169;29;20059;-83
2022/07/23 10:09:58;;;;;;;1.90;1.02;;;20.60;99.90;;;;;;4902069;29;20056;-84
2022/07/23 10:15:06;;;;;;;2.67;0.90;;;20.70;99.90;;;;;;4911251;29;20111;-84
2022/07/23 10:17:33;;;;;;;3.33;0.82;;;20.90;99.90;;;;;;4899386;29;20036;-84
2022/07/23 10:19:59;;;;;;;1.10;0.80;;;21.10;99.90;;;;;;4889801;29;20156;-84
2022/07/23 10:22:27;;;;;;;2.80;0.80;;;21.30;99.90;;;;;;4886367;29;20132;-84
2022/07/23 10:24:58;;;;;;;2.33;1.10;;;21.50;99.90;;;;;;4895682;29;20056;-84
2022/07/23 10:27:51;;;;;;;1.33;0.80;;;21.70;99.90;;;;;;4907307;29;20085;-83
2022/07/23 10:30:20;;;;;;;2.25;1.00;;;21.70;99.90;;;;;;4906810;29;20119;-84
2022/07/23 10:32:52;;;;;;;1.00;0.70;;;21.70;99.90;;;;;;4910110;29;20043;-79
2022/07/23 10:35:36;;;;;;;3.70;1.20;;;21.80;99.90;;;;;;4888372;29;20052;-81
2022/07/23 10:38:12;;;;;;;2.35;0.90;;;21.80;99.90;;;;;;4905939;29;20046;-80
2022/07/23 10:40:53;;;;;;;2.38;0.93;;;21.80;99.60;;;;;;4899232;29;20044;-80
2022/07/23 10:43:19;;;;;;;2.75;1.00;;;21.70;99.10;;;;;;4914368;29;20051;-81
2022/07/23 10:45:45;;;;;;;2.90;1.00;;;21.50;99.10;;;;;;4909523;29;20036;-80
2022/07/23 10:48:17;;;;;;;1.88;0.95;;;21.30;99.60;;;;;;4910243;29;21208;-81
2022/07/23 10:51:04;;;;;;;2.85;0.80;;;21.30;99.90;;;;;;4906806;29;20050;-85
2022/07/23 10:53:49;;;;;;;2.20;0.90;;;21.40;99.00;;;;;;4881767;29;20048;-87
2022/07/23 10:56:15;;;;;;;2.22;1.10;;;21.40;98.70;;;;;;4895417;29;20134;-79
2022/07/23 10:58:49;;;;;;;2.05;1.20;;;21.40;98.50;;;;;;4905174;29;20040;-77
2022/07/23 11:01:38;;;;;;;2.38;0.90;;;21.60;99.00;;;;;;4877022;29;20048;-80
2022/07/23 11:04:07;;;;;;;3.70;0.95;;;21.70;99.20;;;;;;4910737;29;20133;-79
2022/07/23 11:06:48;;;;;;;1.67;0.90;;;21.90;99.60;;;;;;4900998;29;20076;-81
2022/07/23 11:09:37;;;;;;;1.52;0.90;;;22.10;99.10;;;;;;4897191;29;20048;-81
2022/07/23 11:12:24;;;;;;;2.47;0.88;;;22.20;99.80;;;;;;4908211;29;20056;-78
2022/07/23 11:15:05;;;;;;;;;;;22.40;98.00;;;;;;4892878;29;20076;-77
2022/07/23 11:17:42;;;;;;;2.08;0.90;;;22.50;97.70;;;;;;4905458;29;19927;-80
2022/07/23 11:20:11;;;;;;;1.45;1.00;;;22.60;97.90;;;;;;4893660;29;20060;-78
2022/07/23 11:23:00;;;;;;;0.88;0.80;;;22.60;94.70;;;;;;4888592;29;20056;-78
2022/07/23 11:25:27;;;;;;;2.70;1.10;;;22.40;92.20;;;;;;4911469;29;20063;-78
2022/07/23 11:27:53;;;;;;;2.13;1.13;;;22.30;94.50;;;;;;4913336;29;20179;-79
2022/07/23 11:30:28;;;;;;;1.73;0.95;;;22.30;93.20;;;;;;4916993;29;20131;-79
2022/07/23 11:33:08;;;;;;;1.50;0.90;;;22.30;92.60;;;;;;4911005;29;20047;-79
2022/07/23 11:35:40;;;;;;;2.40;1.35;;;22.30;94.60;;;;;;4898590;29;20049;-79
2022/07/23 11:38:12;;;;;;;2.20;1.20;;;22.30;93.60;;;;;;4905539;29;20040;-78
2022/07/23 11:40:38;;;;;;;1.70;1.23;;;22.30;92.20;;;;;;4917175;29;20058;-80
2022/07/23 11:43:07;;;;;;;3.40;1.20;;;22.30;93.30;;;;;;4914365;29;20047;-78
2022/07/23 11:45:37;;;;;;;2.03;1.10;;;22.40;96.00;;;;;;4916243;29;20127;-77
2022/07/23 11:48:04;;;;;;;1.83;1.00;;;22.50;93.10;;;;;;4900237;29;20052;-75
2022/07/23 11:50:31;;;;;;;1.65;1.10;;;22.40;95.10;;;;;;4915598;29;20071;-77
2022/07/23 11:52:57;;;;;;;2.40;1.10;;;22.60;94.20;;;;;;4913158;29;20048;-78
2022/07/23 11:55:23;;;;;;;1.70;1.00;;;22.60;92.50;;;;;;4914751;29;20065;-77
2022/07/23 11:57:51;;;;;;;2.55;1.30;;;22.60;93.70;;;;;;4903985;29;20048;-76
2022/07/23 12:00:28;;;;;;;1.88;1.08;;;22.60;92.10;;;;;;4897222;29;20091;-78
2022/07/23 12:02:59;;;;;;;3.25;1.20;;;22.70;95.20;;;;;;4897851;29;20028;-78
2022/07/23 12:05:29;;;;;;;1.77;1.13;;;22.80;95.20;;;;;;4910108;29;20437;-76
2022/07/23 12:07:56;;;;;;;2.83;1.30;;;23.00;94.30;;;;;;4927763;29;20488;-80
2022/07/23 12:10:33;;;;;;;2.08;1.17;;;23.10;93.40;;;;;;4898575;29;20087;-80
2022/07/23 12:13:04;;;;;;;1.63;1.15;;;23.20;92.70;;;;;;4907936;29;20498;-79
2022/07/23 12:15:42;;;;;;;3.20;1.23;;;23.10;91.00;;;;;;4914360;29;20048;-80
2022/07/23 12:18:11;;;;;;;2.00;1.27;;;22.80;90.30;;;;;;4902228;29;20087;-81
2022/07/23 12:20:42;;;;;;;1.80;1.40;;;22.60;93.40;;;;;;4927941;29;20052;-83
2022/07/23 12:23:09;;;;;;;3.53;1.42;;;22.60;92.90;;;;;;4951494;23;20070;-79
2022/07/23 12:25:41;;;;;;;1.92;1.40;;;22.80;96.40;;;;;;4896454;29;20563;-77
2022/07/23 12:28:11;;;;;;;1.98;1.30;;;23.00;96.20;;;;;;4914509;29;20099;-76
2022/07/23 12:30:45;;;;;;;3.20;1.38;;;23.10;94.80;;;;;;4898154;29;20044;-78
2022/07/23 12:33:15;;;;;;;1.73;1.40;;;23.20;94.30;;;;;;4907261;29;20059;-79
2022/07/23 12:35:44;;;;;;;1.95;1.40;;;23.30;91.40;;;;;;4898700;29;20807;-79
2022/07/23 12:38:15;;;;;;;1.70;1.17;;;23.40;91.90;;;;;;4914753;29;20048;-81
2022/07/23 12:40:46;;;;;;;3.60;1.30;;;23.50;87.50;;;;;;4913749;29;20048;-83
2022/07/23 12:43:22;;;;;;;1.98;1.50;;;23.50;87.80;;;;;;4913394;29;20048;-80
2022/07/23 12:45:54;;;;;;;2.90;1.30;;;23.30;89.80;;;;;;4913832;29;20056;-79
2022/07/23 12:48:25;;;;;;;2.50;1.40;;;23.20;93.50;;;;;;4910759;29;20041;-80
2022/07/23 12:51:10;;;;;;;3.35;1.60;;;23.20;92.50;;;;;;4897990;29;20052;-80
2022/07/23 12:53:42;;;;;;;2.00;1.33;;;23.20;91.90;;;;;;4888694;29;20480;-82
2022/07/23 12:56:20;;;;;;;1.90;1.45;;;23.30;93.40;;;;;;4912152;29;20131;-82
2022/07/23 12:58:48;;;;;;;3.10;1.27;;;23.30;92.20;;;;;;4897471;29;20048;-77
2022/07/23 13:01:24;;;;;;;3.75;1.50;;;23.20;92.80;;;;;;4911509;29;20090;-77
2022/07/23 13:04:12;;;;;;;3.05;1.50;;;23.10;93.50;;;;;;4911053;29;20463;-77
2022/07/23 13:06:44;;;;;;;3.50;1.40;;;23.10;92.10;;;;;;4876704;29;20056;-77
2022/07/23 13:09:15;;;;;;;2.65;1.50;;;23.00;93.70;;;;;;4901952;29;20191;-79
2022/07/23 13:11:41;;;;;;;3.28;1.75;;;23.00;95.20;;;;;;4884061;29;20048;-77
2022/07/23 13:14:07;;;;;;;3.17;1.70;;;23.10;94.10;;;;;;4909859;29;20167;-77
2022/07/23 13:16:33;;;;;;;2.13;1.52;;;23.30;91.70;;;;;;4894591;29;20138;-76
2022/07/23 13:19:00;;;;;;;2.57;1.50;;;23.40;92.90;;;;;;4902287;29;20052;-78
2022/07/23 13:21:27;;;;;;;2.10;1.70;;;23.40;92.00;;;;;;4910995;29;20323;-77
2022/07/23 13:23:53;;;;;;;;;;;23.30;91.60;;;;;;4904139;29;20096;-76
2022/07/23 13:26:19;;;;;;;4.05;1.75;;;23.20;93.20;;;;;;4911478;29;20370;-77
2022/07/23 13:28:44;;;;;;;2.42;1.55;;;23.10;92.30;;;;;;4904713;29;20396;-76
2022/07/23 13:31:10;;;;;;;1.95;1.45;;;23.00;92.80;;;;;;4896706;29;20471;-79